Strona główna
METAR-TAF:

METAR-TAF

Lotnisko :

Pápa, Węgry

Szerokość geograficzna: 47-12N, Długość geograficzna: 017-30E, wysokość: 145 m

Aktualna obserwacja pogody

Raport powstał 51 minut temu, godzina 23:45 UTC
Wiatr 10 kt od północ
Temperatura -3°C
Wilgotność 54%
Ciśnienie 1038 hPa
Widzialność 10 km lub więcej
Brak chmur poniżej 1500 m i brak chmur cumulonimbus

METAR: LHPA 222345Z 36010KT CAVOK M03/M11 Q1038 NOSIG RMK BLU

czas: 01:36 (00:36 UTC)

Prognoza

Raport powstał 1 godzina i 21 minut temu, godzina 23:15 UTC
Prognoza ważna od 23 godzina 00 UTC do 23 godzina 24 UTC
Wiatr 12 kt od północ w porywach dochodzący do 22 kt
Widzialność 10 km lub więcej
Brak chmur poniżej 1500 m i brak chmur cumulonimbus
Stopniowe zmiany
od 23 godzina 00 UTC do 23 godzina 03 UTC
Wiatr 8 kt od północ
Stopniowe zmiany
od 23 godzina 15 UTC do 23 godzina 18 UTC
Wiatr 3 kt z kierunków zmiennych

TAF: LHPA 222315Z 2300/2324 01012G22KT CAVOK BECMG 2300/2303 36008KT BECMG 2315/2318 VRB03KT

Obserwacja i prognoza pogody dla ponad 4000 lotnisk (raport METAR i TAF).

Dostępne stacje oznaczono żółtymi i czerwonymi punktami na mapie.

Najedź kursorem aby zobaczyć nazwę stacji.

Kliknij aby zobaczyć obserwacje i prognozy pogody.

Aby zmienić mapę: kliknij na zielony przycisk z czarnym krzyżykiem, aby powiększyć; na zielony przycisk z myślnikiem, aby pomniejszyć; na zielone strzałki, aby przejść do map sąsiednich.


METAR-TAF: